createdAt,value
2019-02-23T00:01:33.334Z,26.03
2019-02-23T00:04:01.234Z,26.27
2019-02-23T00:06:30.202Z,27.00
2019-02-23T00:08:58.460Z,26.87
2019-02-23T00:11:26.674Z,26.23
2019-02-23T00:13:54.567Z,27.40
2019-02-23T00:16:22.508Z,28.33
2019-02-23T00:18:50.472Z,27.77
2019-02-23T00:21:18.423Z,26.97
2019-02-23T00:23:46.372Z,28.40
2019-02-23T00:26:14.267Z,27.80
2019-02-23T00:28:42.157Z,28.90
2019-02-23T00:31:10.159Z,28.83
2019-02-23T00:33:38.364Z,28.43
2019-02-23T00:36:06.262Z,28.30
2019-02-23T00:38:34.191Z,26.97
2019-02-23T00:41:02.057Z,29.40
2019-02-23T00:43:30.011Z,27.37
2019-02-23T00:45:57.962Z,27.80
2019-02-23T00:48:25.979Z,28.97
2019-02-23T00:50:53.980Z,28.30
2019-02-23T00:53:22.019Z,28.20
2019-02-23T00:55:49.914Z,27.43
2019-02-23T00:58:17.855Z,29.10
2019-02-23T01:00:45.754Z,29.27
2019-02-23T01:03:13.644Z,29.30
2019-02-23T01:05:41.585Z,28.83
2019-02-23T01:08:09.536Z,27.83
2019-02-23T01:10:37.489Z,28.40
2019-02-23T01:13:05.427Z,28.60
2019-02-23T01:15:33.381Z,28.83
2019-02-23T01:18:01.275Z,28.70
2019-02-23T01:20:29.212Z,28.43
2019-02-23T01:22:57.093Z,28.20
2019-02-23T01:25:25.014Z,28.73
2019-02-23T01:27:53.051Z,29.00
2019-02-23T01:30:20.969Z,28.10
2019-02-23T01:32:48.838Z,30.07
2019-02-23T01:35:16.789Z,29.03
2019-02-23T01:37:44.700Z,27.83
2019-02-23T01:40:13.102Z,28.80
2019-02-23T01:42:43.717Z,29.27
2019-02-23T01:45:11.601Z,28.10
2019-02-23T01:47:39.502Z,28.27
2019-02-23T01:50:07.993Z,27.50
2019-02-23T01:52:35.990Z,28.53
2019-02-23T01:55:04.363Z,27.97
2019-02-23T01:57:32.266Z,28.63
2019-02-23T02:00:00.405Z,28.13
2019-02-23T02:02:28.348Z,27.70
2019-02-23T02:04:56.270Z,28.90
2019-02-23T02:07:24.158Z,29.70
2019-02-23T02:09:52.084Z,29.27
2019-02-23T02:12:20.358Z,28.83
2019-02-23T02:14:48.367Z,29.87
2019-02-23T02:17:16.467Z,29.17
2019-02-23T02:19:44.348Z,29.67
2019-02-23T02:22:12.212Z,29.27
2019-02-23T02:24:40.201Z,30.63
2019-02-23T02:27:08.129Z,29.33
2019-02-23T02:29:36.038Z,30.70
2019-02-23T02:32:04.073Z,28.27
2019-02-23T02:34:31.955Z,27.30
2019-02-23T02:36:59.957Z,31.00
2019-02-23T02:39:27.885Z,30.33
2019-02-23T02:41:55.797Z,28.00
2019-02-23T02:44:23.690Z,29.93
2019-02-23T02:46:51.664Z,29.43
2019-02-23T02:49:19.778Z,28.97
2019-02-23T02:51:47.677Z,27.73
2019-02-23T02:54:15.566Z,29.73
2019-02-23T02:56:43.513Z,28.50
2019-02-23T02:59:11.457Z,29.23
2019-02-23T03:01:39.349Z,28.97
2019-02-23T03:04:07.353Z,28.80
2019-02-23T03:06:35.448Z,30.10
2019-02-23T03:09:03.710Z,28.77
2019-02-23T03:11:31.595Z,29.00
2019-02-23T03:13:59.506Z,27.77
2019-02-23T03:16:27.651Z,28.13
2019-02-23T03:18:56.053Z,29.53
2019-02-23T03:21:26.658Z,28.60
2019-02-23T03:23:54.550Z,27.93
2019-02-23T03:26:22.494Z,28.57
2019-02-23T03:28:50.396Z,29.70
2019-02-23T03:31:18.307Z,29.77
2019-02-23T03:33:46.256Z,28.87
2019-02-23T03:36:14.142Z,27.40
2019-02-23T03:38:42.035Z,28.07
2019-02-23T03:41:10.038Z,28.90
2019-02-23T03:43:37.947Z,30.00
2019-02-23T03:46:05.981Z,29.00
2019-02-23T03:48:34.036Z,28.87
2019-02-23T03:51:01.983Z,29.53
2019-02-23T03:53:29.877Z,29.37
2019-02-23T03:55:57.812Z,28.53
2019-02-23T03:58:25.838Z,28.97
2019-02-23T04:00:53.764Z,28.40
2019-02-23T04:03:21.747Z,28.37
2019-02-23T04:05:49.619Z,28.77
2019-02-23T04:08:17.544Z,29.70
2019-02-23T04:10:45.490Z,27.93
2019-02-23T04:13:13.476Z,28.43
2019-02-23T04:15:42.005Z,27.77
2019-02-23T04:18:09.935Z,27.63
2019-02-23T04:20:37.897Z,30.07
2019-02-23T04:23:05.803Z,30.07
2019-02-23T04:25:33.705Z,27.90
2019-02-23T04:28:01.971Z,29.03
2019-02-23T04:30:29.865Z,28.60
2019-02-23T04:32:57.766Z,26.27
2019-02-23T04:35:25.743Z,28.37
2019-02-23T04:37:53.661Z,27.30
2019-02-23T04:40:21.531Z,27.60
2019-02-23T04:42:49.480Z,26.47
2019-02-23T04:45:17.621Z,26.60
2019-02-23T04:47:45.560Z,28.27
2019-02-23T04:50:14.079Z,27.80
2019-02-23T04:52:41.954Z,28.57
2019-02-23T04:55:09.918Z,28.80
2019-02-23T04:57:37.906Z,28.13
2019-02-23T05:00:06.523Z,29.60
2019-02-23T05:02:34.383Z,29.37
2019-02-23T05:05:02.707Z,27.53
2019-02-23T05:07:30.631Z,27.03
2019-02-23T05:09:58.542Z,27.63
2019-02-23T05:12:26.466Z,27.87
2019-02-23T05:14:54.478Z,27.27
2019-02-23T05:17:22.364Z,26.87
2019-02-23T05:19:50.436Z,27.93
2019-02-23T05:22:18.343Z,26.40
2019-02-23T05:24:46.242Z,27.87
2019-02-23T05:27:14.185Z,27.97
2019-02-23T05:29:42.170Z,28.43
2019-02-23T05:32:10.060Z,28.80
2019-02-23T05:34:37.976Z,28.97
2019-02-23T05:37:05.860Z,27.47
2019-02-23T05:39:33.757Z,28.43
2019-02-23T05:42:01.700Z,28.70
2019-02-23T05:44:29.610Z,28.20
2019-02-23T05:46:57.500Z,28.07
2019-02-23T05:49:25.467Z,28.03
2019-02-23T05:51:53.411Z,27.73
2019-02-23T05:54:21.319Z,28.23
2019-02-23T05:56:49.245Z,27.47
2019-02-23T05:59:17.199Z,26.00
2019-02-23T06:01:45.161Z,26.80
2019-02-23T06:04:13.068Z,29.50
2019-02-23T06:06:40.962Z,26.30
2019-02-23T06:09:08.906Z,27.77
2019-02-23T06:11:36.804Z,27.10
2019-02-23T06:14:04.709Z,26.37
2019-02-23T06:16:32.677Z,27.27
2019-02-23T06:19:00.652Z,26.83
2019-02-23T06:21:28.761Z,26.13
2019-02-23T06:23:56.691Z,26.40
2019-02-23T06:26:24.619Z,25.27
2019-02-23T06:28:52.515Z,25.50
2019-02-23T06:31:20.480Z,26.37
2019-02-23T06:33:48.378Z,27.40
2019-02-23T06:36:16.295Z,27.37
2019-02-23T06:38:44.268Z,25.77
2019-02-23T06:41:12.378Z,26.50
2019-02-23T06:43:40.238Z,26.97
2019-02-23T06:46:08.674Z,24.27
2019-02-23T06:48:36.641Z,26.40
2019-02-23T06:51:04.565Z,25.77
2019-02-23T06:53:32.601Z,26.33
2019-02-23T06:56:00.491Z,24.97
2019-02-23T06:58:28.421Z,25.80
2019-02-23T07:00:56.438Z,24.90
2019-02-23T07:03:24.357Z,26.50
2019-02-23T07:05:52.376Z,26.23
2019-02-23T07:08:20.361Z,25.30
2019-02-23T07:10:48.407Z,24.53
2019-02-23T07:13:16.363Z,24.40
2019-02-23T07:15:44.246Z,24.97
2019-02-23T07:18:12.217Z,24.97
2019-02-23T07:20:44.304Z,24.47
2019-02-23T07:23:09.704Z,22.80
2019-02-23T07:25:37.670Z,22.47
2019-02-23T07:28:05.615Z,23.00
2019-02-23T07:30:35.381Z,21.80
2019-02-23T07:33:09.261Z,21.23
2019-02-23T07:35:37.273Z,20.57
2019-02-23T07:38:05.393Z,20.17
2019-02-23T07:40:36.802Z,20.33
2019-02-23T07:43:07.821Z,19.60
2019-02-23T07:45:36.852Z,22.17
2019-02-23T07:48:04.954Z,19.93
2019-02-23T07:50:33.228Z,20.40
2019-02-23T07:53:01.771Z,19.93
2019-02-23T07:55:31.335Z,19.60
2019-02-23T07:57:59.723Z,19.50
2019-02-23T08:00:27.697Z,19.93
2019-02-23T08:02:55.608Z,18.97
2019-02-23T08:05:23.558Z,20.30
2019-02-23T08:07:51.449Z,19.60
2019-02-23T08:10:19.376Z,19.37
2019-02-23T08:12:47.320Z,20.20
2019-02-23T08:15:15.264Z,19.27
2019-02-23T08:17:43.172Z,19.57
2019-02-23T08:20:11.186Z,19.03
2019-02-23T08:22:39.340Z,19.07
2019-02-23T08:25:07.585Z,19.07
2019-02-23T08:27:35.544Z,17.80
2019-02-23T08:30:03.455Z,20.17
2019-02-23T08:32:31.457Z,18.73
2019-02-23T08:34:59.365Z,18.20
2019-02-23T08:37:27.233Z,19.13
2019-02-23T08:39:55.152Z,19.23
2019-02-23T08:42:23.057Z,17.07
2019-02-23T08:44:50.974Z,18.33
2019-02-23T08:47:18.889Z,18.00
2019-02-23T08:49:46.838Z,18.47
2019-02-23T08:52:15.231Z,17.83
2019-02-23T08:54:43.422Z,18.73
2019-02-23T08:57:11.368Z,19.00
2019-02-23T08:59:39.228Z,17.70
2019-02-23T09:02:07.171Z,18.33
2019-02-23T09:04:35.084Z,17.63
2019-02-23T09:07:02.964Z,18.10
2019-02-23T09:09:31.264Z,17.73
2019-02-23T09:11:59.412Z,18.17
2019-02-23T09:14:27.355Z,17.77
2019-02-23T09:16:55.245Z,17.57
2019-02-23T09:19:23.136Z,16.57
2019-02-23T09:21:51.220Z,18.27
2019-02-23T09:24:20.077Z,17.93
2019-02-23T09:26:47.995Z,16.90
2019-02-23T09:29:16.091Z,17.33
2019-02-23T09:31:44.023Z,16.20
2019-02-23T09:34:11.969Z,16.67
2019-02-23T09:36:39.883Z,16.00
2019-02-23T09:39:07.762Z,17.07
2019-02-23T09:41:35.726Z,16.23
2019-02-23T09:44:03.739Z,16.53
2019-02-23T09:46:31.725Z,16.53
2019-02-23T09:48:59.640Z,16.67
2019-02-23T09:51:27.647Z,16.83
2019-02-23T09:53:55.613Z,16.63
2019-02-23T09:56:23.649Z,15.33
2019-02-23T09:58:51.614Z,16.33
2019-02-23T10:01:19.579Z,16.43
2019-02-23T10:03:47.651Z,16.47
2019-02-23T10:06:15.638Z,16.03
2019-02-23T10:08:43.678Z,15.70
2019-02-23T10:11:11.618Z,15.63
2019-02-23T10:13:39.646Z,15.37
2019-02-23T10:16:07.720Z,16.13
2019-02-23T10:18:35.838Z,14.77
2019-02-23T10:21:03.749Z,15.57
2019-02-23T10:23:31.769Z,15.83
2019-02-23T10:26:00.508Z,15.53
2019-02-23T10:28:32.061Z,15.53
2019-02-23T10:31:01.514Z,15.50
2019-02-23T10:33:30.078Z,13.93
2019-02-23T10:35:58.737Z,14.53
2019-02-23T10:38:27.537Z,15.00
2019-02-23T10:40:55.738Z,14.30
2019-02-23T10:43:23.783Z,14.73
2019-02-23T10:45:51.960Z,15.20
2019-02-23T10:48:19.947Z,14.10
2019-02-23T10:50:48.755Z,14.33
2019-02-23T10:53:20.931Z,13.27
2019-02-23T10:55:49.880Z,14.43
2019-02-23T10:58:18.671Z,13.70
2019-02-23T11:00:47.964Z,13.63
2019-02-23T11:03:16.721Z,13.73
2019-02-23T11:05:45.278Z,14.73
2019-02-23T11:08:13.210Z,14.67
2019-02-23T11:10:41.119Z,14.10
2019-02-23T11:13:09.149Z,13.80
2019-02-23T11:15:37.432Z,13.97
2019-02-23T11:18:06.631Z,13.40
2019-02-23T11:20:38.980Z,14.40
2019-02-23T11:23:08.140Z,13.73
2019-02-23T11:25:36.210Z,13.73
2019-02-23T11:28:04.738Z,14.20
2019-02-23T11:30:32.749Z,14.17
2019-02-23T11:33:01.150Z,14.20
2019-02-23T11:35:29.288Z,13.00
2019-02-23T11:37:57.321Z,14.17
2019-02-23T11:40:25.455Z,13.60
2019-02-23T11:42:53.383Z,14.67
2019-02-23T11:45:23.446Z,14.80
2019-02-23T11:47:52.932Z,13.37
2019-02-23T11:50:21.108Z,14.43
2019-02-23T11:52:49.888Z,15.67
2019-02-23T11:55:17.798Z,12.70
2019-02-23T11:57:45.700Z,12.50
2019-02-23T12:00:13.806Z,13.40
2019-02-23T12:02:51.743Z,13.27
2019-02-23T12:05:11.583Z,13.10
2019-02-23T12:07:39.628Z,13.27
2019-02-23T12:10:09.357Z,13.93
2019-02-23T12:12:37.647Z,13.07
2019-02-23T12:15:05.648Z,12.80
2019-02-23T12:17:33.572Z,12.73
2019-02-23T12:20:01.593Z,12.40
2019-02-23T12:22:29.538Z,13.07
2019-02-23T12:24:57.527Z,13.30
2019-02-23T12:27:25.456Z,11.43
2019-02-23T12:29:53.386Z,13.03
2019-02-23T12:32:21.544Z,13.03
2019-02-23T12:34:49.530Z,12.50
2019-02-23T12:37:17.541Z,12.30
2019-02-23T12:39:45.478Z,12.60
2019-02-23T12:42:13.398Z,12.80
2019-02-23T12:44:41.319Z,11.13
2019-02-23T12:47:09.291Z,11.93
2019-02-23T12:49:37.317Z,12.80
2019-02-23T12:52:05.318Z,13.03
2019-02-23T12:54:33.288Z,12.13
2019-02-23T12:57:01.403Z,12.07
2019-02-23T12:59:29.344Z,11.87
2019-02-23T13:01:57.257Z,12.33
2019-02-23T13:04:25.237Z,12.63
2019-02-23T13:06:53.506Z,11.83
2019-02-23T13:09:25.470Z,12.60
2019-02-23T13:11:55.587Z,12.23
2019-02-23T13:14:34.959Z,12.33
2019-02-23T13:17:09.981Z,12.37
2019-02-23T13:19:57.078Z,12.50
2019-02-23T13:22:32.090Z,12.93
2019-02-23T13:25:31.130Z,12.83
2019-02-23T13:28:17.606Z,11.40
2019-02-23T13:30:55.681Z,12.90
2019-02-23T13:33:27.393Z,12.00
2019-02-23T13:36:15.953Z,12.00
2019-02-23T13:39:03.899Z,12.10
2019-02-23T13:41:50.899Z,12.40
2019-02-23T13:44:23.530Z,11.93
2019-02-23T13:47:22.569Z,11.90
2019-02-23T13:49:58.846Z,12.20
2019-02-23T13:53:04.100Z,11.53
2019-02-23T13:56:09.330Z,11.30
2019-02-23T13:58:49.445Z,12.70
2019-02-23T14:01:39.470Z,11.70
2019-02-23T14:04:10.852Z,11.67
2019-02-23T14:07:13.248Z,12.00
2019-02-23T14:10:12.133Z,11.33
2019-02-23T14:12:59.789Z,12.37
2019-02-23T14:15:55.929Z,11.57
2019-02-23T14:18:37.147Z,12.33
2019-02-23T14:21:39.473Z,11.60
2019-02-23T14:24:25.186Z,12.50
2019-02-23T14:27:07.139Z,11.27
2019-02-23T14:29:39.008Z,11.63
2019-02-23T14:32:14.088Z,12.57
2019-02-23T14:35:07.372Z,12.53
2019-02-23T14:38:00.142Z,13.40
2019-02-23T14:40:41.109Z,11.83
2019-02-23T14:43:21.837Z,12.17
2019-02-23T14:46:24.057Z,12.87
2019-02-23T14:49:11.307Z,12.10
2019-02-23T14:51:58.416Z,11.77
2019-02-23T14:54:44.491Z,12.50
2019-02-23T14:57:23.294Z,12.70
2019-02-23T15:00:13.246Z,12.73
2019-02-23T15:02:47.412Z,12.50
2019-02-23T15:05:25.335Z,11.80
2019-02-23T15:08:12.369Z,12.90
2019-02-23T15:10:58.017Z,13.00
2019-02-23T15:13:36.262Z,12.93
2019-02-23T15:16:17.036Z,13.03
2019-02-23T15:18:48.819Z,12.87
2019-02-23T15:21:23.298Z,12.67
2019-02-23T15:24:05.555Z,12.87
2019-02-23T15:26:55.713Z,13.20
2019-02-23T15:29:29.829Z,13.10
2019-02-23T15:32:35.379Z,13.50
2019-02-23T15:35:22.424Z,13.07
2019-02-23T15:37:54.739Z,13.57
2019-02-23T15:40:36.200Z,14.37
2019-02-23T15:43:26.390Z,14.60
2019-02-23T15:46:09.708Z,14.20
2019-02-23T15:48:59.701Z,13.67
2019-02-23T15:51:27.751Z,14.50
2019-02-23T15:53:55.714Z,14.67
2019-02-23T15:56:23.736Z,14.03
2019-02-23T15:58:51.842Z,14.33
2019-02-23T16:01:19.835Z,15.37
2019-02-23T16:03:47.845Z,13.73
2019-02-23T16:06:15.957Z,15.47
2019-02-23T16:08:44.028Z,15.63
2019-02-23T16:11:12.655Z,16.03
2019-02-23T16:13:40.611Z,16.00
2019-02-23T16:16:08.542Z,16.70
2019-02-23T16:18:36.567Z,17.13
2019-02-23T16:21:04.566Z,17.37
2019-02-23T16:23:35.567Z,18.30
2019-02-23T16:26:02.756Z,19.47
2019-02-23T16:28:30.688Z,18.97
2019-02-23T16:30:58.655Z,18.27
2019-02-23T16:33:26.655Z,19.03
2019-02-23T16:35:57.494Z,17.97
2019-02-23T16:38:25.494Z,17.63
2019-02-23T16:40:59.066Z,18.33
2019-02-23T16:43:30.962Z,17.87
2019-02-23T16:45:59.978Z,18.00
2019-02-23T16:48:27.948Z,18.07
2019-02-23T16:50:55.953Z,17.27
2019-02-23T16:53:24.171Z,17.60
2019-02-23T16:55:52.101Z,16.23
2019-02-23T16:58:20.155Z,17.97
2019-02-23T17:00:48.187Z,17.13
2019-02-23T17:03:16.253Z,16.73
2019-02-23T17:05:45.121Z,17.17
2019-02-23T17:08:13.133Z,17.40
2019-02-23T17:10:41.200Z,16.60
2019-02-23T17:13:09.158Z,17.63
2019-02-23T17:15:37.116Z,17.23
2019-02-23T17:18:05.087Z,16.47
2019-02-23T17:20:33.014Z,16.90
2019-02-23T17:23:02.134Z,16.53
2019-02-23T17:25:30.307Z,16.90
2019-02-23T17:27:58.209Z,15.77
2019-02-23T17:30:26.346Z,17.27
2019-02-23T17:32:54.295Z,16.77
2019-02-23T17:35:22.374Z,16.57
2019-02-23T17:37:50.271Z,17.07
2019-02-23T17:40:18.310Z,16.03
2019-02-23T17:42:47.416Z,16.23
2019-02-23T17:45:15.316Z,15.20
2019-02-23T17:47:43.341Z,16.67
2019-02-23T17:50:11.321Z,16.60
2019-02-23T17:52:39.256Z,16.57
2019-02-23T17:55:07.267Z,15.90
2019-02-23T17:57:35.237Z,16.70
2019-02-23T18:00:03.303Z,16.67
2019-02-23T18:02:31.496Z,17.10
2019-02-23T18:04:59.510Z,17.83
2019-02-23T18:07:27.496Z,20.50
2019-02-23T18:09:55.490Z,16.17
2019-02-23T18:12:23.605Z,17.73
2019-02-23T18:14:51.564Z,16.27
2019-02-23T18:17:19.514Z,16.73
2019-02-23T18:19:47.424Z,16.87
2019-02-23T18:22:15.302Z,16.97
2019-02-23T18:24:43.356Z,16.93
2019-02-23T18:27:11.460Z,15.27
2019-02-23T18:29:39.534Z,16.37
2019-02-23T18:32:07.475Z,16.67
2019-02-23T18:34:35.485Z,17.07
2019-02-23T18:37:03.699Z,16.93
2019-02-23T18:39:31.612Z,16.10
2019-02-23T18:41:59.502Z,16.73
2019-02-23T18:44:27.605Z,17.13
2019-02-23T18:46:55.557Z,16.20
2019-02-23T18:49:23.544Z,15.80
2019-02-23T18:51:51.910Z,16.70
2019-02-23T18:54:19.815Z,15.57
2019-02-23T18:56:47.723Z,16.27
2019-02-23T18:59:15.662Z,16.00
2019-02-23T19:01:43.745Z,16.43
2019-02-23T19:04:12.384Z,15.90
2019-02-23T19:06:40.354Z,16.00
2019-02-23T19:09:08.244Z,15.83
2019-02-23T19:11:36.165Z,16.23
2019-02-23T19:14:04.126Z,16.53
2019-02-23T19:16:32.181Z,17.23
2019-02-23T19:19:00.159Z,16.73
2019-02-23T19:21:28.262Z,15.73
2019-02-23T19:23:56.463Z,17.30
2019-02-23T19:26:24.395Z,16.70
2019-02-23T19:28:52.545Z,16.10
2019-02-23T19:31:20.444Z,16.87
2019-02-23T19:33:48.429Z,16.00
2019-02-23T19:36:16.434Z,17.40
2019-02-23T19:38:44.533Z,16.80
2019-02-23T19:41:12.588Z,16.67
2019-02-23T19:43:40.550Z,16.63
2019-02-23T19:46:08.700Z,16.10
2019-02-23T19:48:36.678Z,18.40
2019-02-23T19:51:06.676Z,17.13
2019-02-23T19:53:34.634Z,15.93
2019-02-23T19:56:02.686Z,16.57
2019-02-23T19:58:30.765Z,17.10
2019-02-23T20:00:58.905Z,15.50
2019-02-23T20:03:26.972Z,17.00
2019-02-23T20:05:55.131Z,15.93
2019-02-23T20:08:23.184Z,16.77
2019-02-23T20:10:51.255Z,18.37
2019-02-23T20:13:19.352Z,16.83
2019-02-23T20:15:47.661Z,17.17
2019-02-23T20:18:15.625Z,16.83
2019-02-23T20:20:43.613Z,16.70
2019-02-23T20:23:11.575Z,16.93
2019-02-23T20:25:39.718Z,17.60
2019-02-23T20:28:07.830Z,17.10
2019-02-23T20:30:35.756Z,16.43
2019-02-23T20:33:03.752Z,16.87
2019-02-23T20:35:32.223Z,18.07
2019-02-23T20:38:00.260Z,16.90
2019-02-23T20:40:28.642Z,17.73
2019-02-23T20:42:56.607Z,17.97
2019-02-23T20:45:24.649Z,16.90
2019-02-23T20:47:52.749Z,17.97
2019-02-23T20:50:22.056Z,16.53
2019-02-23T20:52:50.272Z,16.57
2019-02-23T20:55:18.267Z,17.40
2019-02-23T20:57:46.356Z,17.10
2019-02-23T21:00:14.325Z,17.80
2019-02-23T21:02:43.729Z,16.97
2019-02-23T21:05:11.765Z,16.70
2019-02-23T21:07:39.788Z,17.07
2019-02-23T21:10:08.171Z,16.13
2019-02-23T21:12:36.268Z,17.00
2019-02-23T21:15:04.870Z,16.53
2019-02-23T21:17:32.926Z,16.53
2019-02-23T21:20:01.042Z,17.80
2019-02-23T21:22:28.983Z,17.30
2019-02-23T21:24:56.924Z,18.83
2019-02-23T21:27:24.974Z,16.73
2019-02-23T21:29:52.999Z,17.53
2019-02-23T21:32:22.228Z,16.80
2019-02-23T21:34:50.597Z,17.20
2019-02-23T21:37:18.741Z,17.47
2019-02-23T21:39:46.727Z,17.07
2019-02-23T21:42:14.641Z,17.77
2019-02-23T21:44:42.626Z,17.53
2019-02-23T21:47:10.729Z,17.27
2019-02-23T21:49:38.628Z,16.97
2019-02-23T21:52:06.597Z,18.43
2019-02-23T21:54:34.503Z,17.20
2019-02-23T21:57:02.488Z,18.03
2019-02-23T21:59:30.490Z,18.03
2019-02-23T22:01:58.464Z,16.30
2019-02-23T22:04:26.480Z,17.17
2019-02-23T22:06:54.767Z,17.17
2019-02-23T22:09:22.747Z,16.70
2019-02-23T22:11:50.692Z,16.87
2019-02-23T22:14:18.631Z,17.00
2019-02-23T22:16:46.728Z,15.57
2019-02-23T22:19:14.738Z,17.73
2019-02-23T22:21:42.769Z,17.07
2019-02-23T22:24:10.668Z,17.77
2019-02-23T22:26:38.669Z,16.87
2019-02-23T22:29:06.681Z,17.33
2019-02-23T22:31:34.626Z,17.67
2019-02-23T22:34:02.563Z,19.00
2019-02-23T22:36:30.909Z,17.90
2019-02-23T22:38:58.804Z,16.43
2019-02-23T22:41:26.808Z,17.10
2019-02-23T22:43:54.758Z,16.27
2019-02-23T22:46:22.761Z,17.13
2019-02-23T22:48:51.144Z,17.63
2019-02-23T22:51:20.480Z,17.33
2019-02-23T22:53:50.290Z,16.97
2019-02-23T22:56:20.083Z,16.80
2019-02-23T22:58:48.722Z,15.50
2019-02-23T23:01:17.341Z,17.37
2019-02-23T23:03:46.274Z,16.23
2019-02-23T23:06:14.662Z,16.43
2019-02-23T23:08:43.621Z,15.73
2019-02-23T23:11:11.519Z,17.83
2019-02-23T23:13:39.451Z,16.50
2019-02-23T23:16:07.816Z,15.83
2019-02-23T23:18:35.755Z,16.43
2019-02-23T23:21:03.623Z,15.90
2019-02-23T23:23:31.529Z,16.23
2019-02-23T23:25:59.583Z,17.03
2019-02-23T23:28:27.540Z,16.73
2019-02-23T23:30:55.522Z,16.17
2019-02-23T23:33:23.469Z,16.50
2019-02-23T23:35:51.355Z,17.27
2019-02-23T23:38:19.297Z,17.57
2019-02-23T23:40:47.180Z,17.33
2019-02-23T23:43:15.075Z,17.50
2019-02-23T23:45:42.978Z,16.57
2019-02-23T23:48:13.749Z,16.73
2019-02-23T23:50:41.645Z,16.07
2019-02-23T23:53:09.550Z,16.83
2019-02-23T23:55:37.546Z,16.80
2019-02-23T23:58:05.413Z,16.57
